Terminal Aerodrome Forecast
Issued by NWS

Home | Current Version | Previous Version | Text Only | Print | Product List | Glossary On
Versions: 1 2 3 4 5 6 7 8 9 10 11 12 13 14 15 16 17 18
232
FTUS41 KCLE 111342 AAA
TAFFDY
TAF AMD
KFDY 111342Z 1114/1212 14008KT 6SM -SN OVC035
      TEMPO 1114/1116 3SM -SN
     FM111600 15012G20KT 2SM -SN OVC025
     FM111900 17012G20KT 1SM -SN OVC015
     FM120300 20012KT 3SM -RASN OVC008=

USA.gov is the U.S. government's official web portal to all federal, state and local government web resources and services.